createdAt,value
2022-11-24T00:01:18.466Z,92.20
2022-11-24T00:03:54.302Z,82.33
2022-11-24T00:06:20.987Z,78.97
2022-11-24T00:08:48.393Z,90.50
2022-11-24T00:11:17.330Z,93.93
2022-11-24T00:13:44.410Z,86.77
2022-11-24T00:16:16.099Z,91.93
2022-11-24T00:18:44.241Z,79.07
2022-11-24T00:21:11.264Z,85.20
2022-11-24T00:23:38.243Z,84.83
2022-11-24T00:26:06.049Z,82.27
2022-11-24T00:28:34.022Z,76.77
2022-11-24T00:31:01.292Z,76.10
2022-11-24T00:33:28.010Z,81.93
2022-11-24T00:35:57.169Z,85.37
2022-11-24T00:38:24.405Z,79.97
2022-11-24T00:40:52.145Z,82.17
2022-11-24T00:43:19.424Z,76.07
2022-11-24T00:45:48.392Z,74.77
2022-11-24T00:48:15.357Z,77.10
2022-11-24T00:50:42.137Z,79.13
2022-11-24T00:53:08.820Z,78.67
2022-11-24T00:55:35.671Z,77.47
2022-11-24T00:58:02.476Z,84.97
2022-11-24T01:00:29.615Z,83.10
2022-11-24T01:02:56.390Z,87.43
2022-11-24T01:05:27.366Z,80.23
2022-11-24T01:07:54.222Z,75.83
2022-11-24T01:10:21.750Z,79.97
2022-11-24T01:12:48.435Z,86.53
2022-11-24T01:15:15.132Z,84.03
2022-11-24T01:17:41.731Z,84.63
2022-11-24T01:20:09.320Z,77.57
2022-11-24T01:22:35.955Z,78.57
2022-11-24T01:25:02.611Z,84.50
2022-11-24T01:27:29.226Z,78.77
2022-11-24T01:29:55.828Z,66.07
2022-11-24T01:32:22.489Z,75.67
2022-11-24T01:34:49.293Z,74.67
2022-11-24T01:37:15.905Z,81.37
2022-11-24T01:39:42.531Z,73.30
2022-11-24T01:42:09.238Z,75.57
2022-11-24T01:44:36.152Z,75.63
2022-11-24T01:47:08.084Z,77.13
2022-11-24T01:49:42.029Z,80.03
2022-11-24T01:52:16.269Z,71.43
2022-11-24T01:57:25.971Z,78.30
2022-11-24T01:59:56.355Z,77.50
2022-11-24T02:02:23.620Z,83.27
2022-11-24T02:04:50.994Z,76.80
2022-11-24T02:07:18.227Z,74.73
2022-11-24T02:09:51.488Z,72.00
2022-11-24T02:12:18.099Z,78.80
2022-11-24T02:14:45.003Z,77.40
2022-11-24T02:17:12.002Z,74.00
2022-11-24T02:19:49.117Z,70.93
2022-11-24T02:22:27.936Z,76.13
2022-11-24T02:25:33.229Z,77.47
2022-11-24T02:28:00.925Z,74.65
2022-11-24T02:30:27.787Z,74.27
2022-11-24T02:32:55.031Z,72.67
2022-11-24T02:35:21.827Z,74.57
2022-11-24T02:37:48.570Z,71.33
2022-11-24T02:40:16.763Z,73.63
2022-11-24T02:42:45.427Z,76.40
2022-11-24T02:45:12.434Z,75.93
2022-11-24T02:47:39.081Z,71.80
2022-11-24T02:50:06.193Z,78.10
2022-11-24T02:52:32.981Z,74.93
2022-11-24T02:54:59.590Z,76.33
2022-11-24T02:57:26.208Z,69.80
2022-11-24T02:59:52.829Z,72.57
2022-11-24T03:02:19.461Z,75.53
2022-11-24T03:04:46.121Z,81.90
2022-11-24T03:07:12.807Z,77.73
2022-11-24T03:09:39.489Z,65.90
2022-11-24T03:12:06.638Z,66.23
2022-11-24T03:14:33.527Z,58.97
2022-11-24T03:17:00.350Z,68.27
2022-11-24T03:19:27.008Z,66.37
2022-11-24T03:21:53.650Z,70.57
2022-11-24T03:24:20.289Z,71.87
2022-11-24T03:26:46.908Z,70.00
2022-11-24T03:29:13.504Z,72.83
2022-11-24T03:31:40.241Z,65.67
2022-11-24T03:34:06.947Z,64.60
2022-11-24T03:36:33.577Z,64.87
2022-11-24T03:39:00.191Z,63.33
2022-11-24T03:41:26.788Z,69.93
2022-11-24T03:43:53.569Z,64.97
2022-11-24T03:46:20.306Z,84.47
2022-11-24T03:48:46.943Z,64.40
2022-11-24T03:51:13.667Z,57.30
2022-11-24T03:53:40.300Z,71.27
2022-11-24T03:56:07.122Z,64.37
2022-11-24T03:58:33.732Z,70.13
2022-11-24T04:01:00.392Z,59.03
2022-11-24T04:03:27.059Z,56.67
2022-11-24T04:05:53.667Z,63.10
2022-11-24T04:08:20.606Z,64.67
2022-11-24T04:10:52.271Z,58.70
2022-11-24T04:13:21.145Z,62.20
2022-11-24T04:15:48.071Z,67.50
2022-11-24T04:18:14.812Z,58.53
2022-11-24T04:20:41.983Z,68.83
2022-11-24T04:23:09.168Z,63.20
2022-11-24T04:25:36.039Z,63.73
2022-11-24T04:28:04.363Z,66.73
2022-11-24T04:30:31.179Z,67.20
2022-11-24T04:32:57.786Z,61.37
2022-11-24T04:35:24.487Z,62.13
2022-11-24T04:37:51.122Z,61.90
2022-11-24T04:40:17.908Z,61.70
2022-11-24T04:42:44.838Z,58.10
2022-11-24T04:45:11.525Z,55.40
2022-11-24T04:47:38.485Z,63.87
2022-11-24T04:50:07.737Z,66.70
2022-11-24T04:52:34.441Z,55.60
2022-11-24T04:55:01.313Z,65.87
2022-11-24T04:57:27.978Z,54.13
2022-11-24T04:59:55.023Z,60.33
2022-11-24T05:02:22.318Z,58.60
2022-11-24T05:04:49.016Z,58.90
2022-11-24T05:07:18.649Z,57.07
2022-11-24T05:10:05.457Z,61.63
2022-11-24T05:12:32.238Z,57.33
2022-11-24T05:14:59.555Z,67.37
2022-11-24T05:17:30.749Z,60.80
2022-11-24T05:19:57.832Z,59.50
2022-11-24T05:22:24.826Z,57.27
2022-11-24T05:24:51.628Z,57.27
2022-11-24T05:27:18.246Z,56.57
2022-11-24T05:29:44.944Z,67.83
2022-11-24T05:32:11.568Z,56.07
2022-11-24T05:34:38.521Z,66.37
2022-11-24T05:37:05.172Z,57.03
2022-11-24T05:39:35.991Z,60.63
2022-11-24T05:42:23.939Z,64.43
2022-11-24T05:44:50.875Z,53.67
2022-11-24T05:47:17.678Z,52.33
2022-11-24T05:49:44.330Z,58.53
2022-11-24T05:52:11.413Z,54.93
2022-11-24T05:54:38.183Z,56.60
2022-11-24T05:57:05.345Z,56.30
2022-11-24T05:59:31.995Z,55.37
2022-11-24T06:01:58.798Z,56.93
2022-11-24T06:04:26.026Z,49.00
2022-11-24T06:06:52.735Z,54.37
2022-11-24T06:09:19.387Z,51.70
2022-11-24T06:11:47.500Z,50.83
2022-11-24T06:14:14.561Z,54.40
2022-11-24T06:16:41.324Z,64.40
2022-11-24T06:19:09.651Z,52.47
2022-11-24T06:21:36.417Z,52.50
2022-11-24T06:24:03.096Z,53.57
2022-11-24T06:26:29.703Z,45.40
2022-11-24T06:28:56.342Z,50.23
2022-11-24T06:31:23.319Z,48.07
2022-11-24T06:33:50.133Z,52.70
2022-11-24T06:36:16.788Z,53.67
2022-11-24T06:38:43.390Z,46.10
2022-11-24T06:41:13.079Z,49.37
2022-11-24T06:43:40.228Z,48.13
2022-11-24T06:46:07.145Z,49.43
2022-11-24T06:48:34.122Z,49.60
2022-11-24T06:51:02.263Z,45.10
2022-11-24T06:53:32.907Z,41.13
2022-11-24T06:56:00.758Z,49.00
2022-11-24T06:58:27.845Z,49.50
2022-11-24T07:00:54.623Z,47.80
2022-11-24T07:03:21.374Z,43.43
2022-11-24T07:05:48.060Z,46.90
2022-11-24T07:08:17.902Z,46.13
2022-11-24T07:10:44.786Z,46.50
2022-11-24T07:13:11.431Z,42.67
2022-11-24T07:15:38.099Z,49.07
2022-11-24T07:18:04.839Z,49.87
2022-11-24T07:20:31.634Z,46.60
2022-11-24T07:22:58.801Z,45.00
2022-11-24T07:25:25.720Z,42.50
2022-11-24T07:27:58.946Z,47.30
2022-11-24T07:30:27.017Z,46.53
2022-11-24T07:32:59.174Z,42.37
2022-11-24T07:35:25.894Z,46.37
2022-11-24T07:37:56.807Z,41.13
2022-11-24T07:40:24.738Z,42.67
2022-11-24T07:42:51.549Z,43.70
2022-11-24T07:45:18.236Z,41.47
2022-11-24T07:47:44.968Z,46.37
2022-11-24T07:50:12.507Z,48.07
2022-11-24T07:52:39.512Z,46.47
2022-11-24T07:55:07.697Z,41.27
2022-11-24T07:57:34.477Z,42.87
2022-11-24T08:00:01.155Z,45.30
2022-11-24T08:02:27.829Z,49.93
2022-11-24T08:04:54.545Z,46.73
2022-11-24T08:07:22.424Z,52.03
2022-11-24T08:09:50.484Z,43.23
2022-11-24T08:12:21.549Z,38.93
2022-11-24T08:14:49.882Z,39.13
2022-11-24T08:17:19.788Z,44.20
2022-11-24T08:19:46.573Z,42.27
2022-11-24T08:22:13.302Z,43.97
2022-11-24T08:24:46.204Z,41.67
2022-11-24T08:27:13.925Z,46.47
2022-11-24T08:29:40.659Z,42.43
2022-11-24T08:32:07.695Z,43.97
2022-11-24T08:34:34.747Z,45.57
2022-11-24T08:37:04.186Z,42.30
2022-11-24T08:39:31.174Z,51.10
2022-11-24T08:41:57.899Z,45.03
2022-11-24T08:44:24.807Z,41.77
2022-11-24T08:46:54.022Z,39.07
2022-11-24T08:49:21.907Z,43.10
2022-11-24T08:51:50.050Z,43.83
2022-11-24T08:54:18.759Z,41.53
2022-11-24T08:56:46.161Z,40.20
2022-11-24T08:59:13.932Z,40.23
2022-11-24T09:01:41.804Z,40.90
2022-11-24T09:04:08.725Z,44.73
2022-11-24T09:06:35.403Z,41.57
2022-11-24T09:09:02.113Z,42.40
2022-11-24T09:11:29.222Z,36.40
2022-11-24T09:13:56.033Z,36.90
2022-11-24T09:16:26.040Z,35.13
2022-11-24T09:19:01.584Z,33.63
2022-11-24T09:21:29.240Z,41.97
2022-11-24T09:23:56.285Z,37.70
2022-11-24T09:26:25.665Z,40.07
2022-11-24T09:28:56.389Z,41.67
2022-11-24T09:31:29.798Z,38.10
2022-11-24T09:33:57.127Z,38.00
2022-11-24T09:36:24.426Z,39.67
2022-11-24T09:38:51.140Z,41.47
2022-11-24T09:41:18.322Z,39.23
2022-11-24T09:44:17.889Z,40.90
2022-11-24T09:47:06.026Z,41.37
2022-11-24T09:49:55.959Z,49.57
2022-11-24T09:53:01.587Z,60.10
2022-11-24T09:55:37.482Z,42.20
2022-11-24T09:58:42.324Z,40.90
2022-11-24T10:01:38.026Z,44.53
2022-11-24T10:04:15.185Z,46.00
2022-11-24T10:07:01.748Z,45.80
2022-11-24T10:09:37.555Z,37.47
2022-11-24T10:12:28.475Z,47.23
2022-11-24T10:15:11.166Z,39.60
2022-11-24T10:18:16.471Z,37.77
2022-11-24T10:21:02.489Z,43.23
2022-11-24T10:23:58.603Z,43.73
2022-11-24T10:26:35.637Z,41.93
2022-11-24T10:29:22.972Z,37.10
2022-11-24T10:31:52.841Z,45.53
2022-11-24T10:34:31.564Z,39.23
2022-11-24T10:37:03.278Z,39.43
2022-11-24T10:39:41.466Z,43.27
2022-11-24T10:42:30.380Z,36.50
2022-11-24T10:45:17.611Z,84.43
2022-11-24T10:47:45.532Z,50.87
2022-11-24T10:50:24.053Z,38.33
2022-11-24T10:53:14.646Z,40.50
2022-11-24T10:55:57.344Z,38.10
2022-11-24T10:58:34.431Z,28.77
2022-11-24T11:01:13.405Z,34.97
2022-11-24T11:03:51.871Z,35.17
2022-11-24T11:06:22.723Z,38.13
2022-11-24T11:08:49.375Z,34.07
2022-11-24T11:11:28.168Z,41.87
2022-11-24T11:14:04.670Z,33.83
2022-11-24T11:16:50.708Z,37.43
2022-11-24T11:19:58.612Z,36.27
2022-11-24T11:22:30.430Z,40.10
2022-11-24T11:25:12.432Z,33.37
2022-11-24T11:27:40.107Z,31.50
2022-11-24T11:35:50.352Z,39.03
2022-11-24T11:38:17.251Z,37.97
2022-11-24T11:40:44.020Z,33.33
2022-11-24T11:43:26.801Z,37.97
2022-11-24T11:46:07.106Z,35.23
2022-11-24T11:48:42.756Z,39.80
2022-11-24T11:51:25.596Z,35.03
2022-11-24T11:54:13.453Z,34.23
2022-11-24T11:56:45.210Z,39.30
2022-11-24T11:59:31.769Z,33.83
2022-11-24T12:02:19.120Z,39.03
2022-11-24T12:04:59.874Z,35.83
2022-11-24T12:08:20.758Z,39.33
2022-11-24T12:11:01.132Z,34.67
2022-11-24T12:13:38.541Z,36.53
2022-11-24T12:16:37.691Z,36.53
2022-11-24T12:19:12.635Z,37.17
2022-11-24T12:21:50.371Z,36.63
2022-11-24T12:24:54.907Z,39.00
2022-11-24T12:27:33.198Z,42.22
2022-11-24T12:30:16.409Z,41.57
2022-11-24T12:33:03.419Z,41.83
2022-11-24T12:35:46.440Z,43.03
2022-11-24T12:38:34.437Z,39.13
2022-11-24T12:41:43.966Z,36.40
2022-11-24T12:44:45.284Z,39.47
2022-11-24T12:47:14.329Z,42.63
2022-11-24T12:49:55.789Z,39.70
2022-11-24T12:52:28.813Z,41.93
2022-11-24T12:54:56.126Z,42.30
2022-11-24T12:57:34.116Z,38.23
2022-11-24T13:00:09.177Z,36.77
2022-11-24T13:02:51.217Z,38.93
2022-11-24T13:05:32.927Z,39.00
2022-11-24T13:08:04.640Z,38.73
2022-11-24T13:10:55.353Z,35.90
2022-11-24T13:13:27.995Z,39.00
2022-11-24T13:17:06.198Z,41.60
2022-11-24T13:18:57.035Z,40.93
2022-11-24T13:21:50.401Z,41.43
2022-11-24T13:24:17.567Z,39.77
2022-11-24T13:26:48.560Z,40.67
2022-11-24T13:29:27.299Z,41.47
2022-11-24T13:31:55.063Z,43.90
2022-11-24T13:34:49.634Z,40.57
2022-11-24T13:37:40.555Z,39.58
2022-11-24T13:40:13.500Z,41.57
2022-11-24T13:43:12.709Z,35.13
2022-11-24T13:45:39.275Z,40.67
2022-11-24T13:48:22.480Z,40.30
2022-11-24T13:50:49.448Z,41.57
2022-11-24T13:53:36.036Z,39.03
2022-11-24T13:56:02.550Z,41.93
2022-11-24T13:58:32.519Z,43.00
2022-11-24T14:01:36.103Z,44.33
2022-11-24T14:04:32.083Z,38.97
2022-11-24T14:07:07.294Z,36.37
2022-11-24T14:09:40.317Z,42.07
2022-11-24T14:12:13.614Z,40.20
2022-11-24T14:14:40.850Z,42.03
2022-11-24T14:17:15.598Z,41.90
2022-11-24T14:19:43.425Z,41.73
2022-11-24T14:22:21.302Z,42.27
2022-11-24T14:24:56.537Z,37.20
2022-11-24T14:27:38.028Z,41.10
2022-11-24T14:30:18.029Z,34.73
2022-11-24T14:32:59.882Z,38.40
2022-11-24T14:35:33.510Z,40.83
2022-11-24T14:38:02.312Z,37.15
2022-11-24T14:40:55.041Z,42.43
2022-11-24T14:43:24.202Z,35.50
2022-11-24T14:45:53.329Z,37.23
2022-11-24T14:48:26.428Z,39.50
2022-11-24T14:50:53.968Z,42.13
2022-11-24T14:53:26.231Z,37.10
2022-11-24T14:56:35.545Z,39.00
2022-11-24T14:59:02.610Z,39.87
2022-11-24T15:01:29.608Z,47.47
2022-11-24T15:04:46.344Z,39.17
2022-11-24T15:07:19.514Z,39.77
2022-11-24T15:09:50.569Z,38.00
2022-11-24T15:12:34.433Z,40.87
2022-11-24T15:15:07.792Z,41.65
2022-11-24T15:17:34.509Z,41.00
2022-11-24T15:20:08.038Z,38.77
2022-11-24T15:22:41.869Z,30.80
2022-11-24T15:25:40.927Z,34.50
2022-11-24T15:28:08.583Z,38.23
2022-11-24T15:30:38.567Z,39.27
2022-11-24T15:33:14.124Z,39.17
2022-11-24T15:35:40.837Z,40.67
2022-11-24T15:38:07.707Z,36.73
2022-11-24T15:40:34.695Z,36.03
2022-11-24T15:43:06.287Z,41.47
2022-11-24T15:45:34.327Z,39.00
2022-11-24T15:48:01.279Z,38.00
2022-11-24T15:50:28.138Z,42.57
2022-11-24T15:52:57.030Z,40.67
2022-11-24T15:55:23.712Z,42.23
2022-11-24T15:57:50.515Z,39.93
2022-11-24T16:00:21.831Z,41.83
2022-11-24T16:02:48.718Z,47.73
2022-11-24T16:05:16.326Z,39.73
2022-11-24T16:07:43.470Z,41.93
2022-11-24T16:10:22.050Z,47.00
2022-11-24T16:12:51.548Z,42.80
2022-11-24T16:15:18.776Z,42.10
2022-11-24T16:17:45.455Z,38.63
2022-11-24T16:20:12.867Z,47.03
2022-11-24T16:22:39.604Z,47.53
2022-11-24T16:25:06.698Z,40.13
2022-11-24T16:27:35.536Z,41.97
2022-11-24T16:30:02.569Z,44.80
2022-11-24T16:32:29.361Z,52.97
2022-11-24T16:34:56.063Z,56.03
2022-11-24T16:37:22.909Z,47.63
2022-11-24T16:39:50.396Z,48.60
2022-11-24T16:42:17.418Z,44.77
2022-11-24T16:44:44.160Z,44.03
2022-11-24T16:47:13.731Z,43.13
2022-11-24T16:49:40.390Z,40.53
2022-11-24T16:52:08.522Z,47.00
2022-11-24T16:54:35.447Z,42.87
2022-11-24T16:57:02.221Z,45.60
2022-11-24T16:59:29.057Z,40.33
2022-11-24T17:01:55.789Z,40.43
2022-11-24T17:04:22.435Z,40.50
2022-11-24T17:06:49.155Z,41.57
2022-11-24T17:09:16.961Z,47.60
2022-11-24T17:11:43.653Z,44.83
2022-11-24T17:14:10.934Z,45.50
2022-11-24T17:16:38.525Z,41.80
2022-11-24T17:19:05.702Z,46.07
2022-11-24T17:21:32.962Z,50.50
2022-11-24T17:24:01.655Z,39.53
2022-11-24T17:26:28.489Z,35.57
2022-11-24T17:28:56.038Z,40.40
2022-11-24T17:31:27.809Z,42.93
2022-11-24T17:33:56.605Z,43.87
2022-11-24T17:36:23.771Z,41.20
2022-11-24T17:38:50.683Z,38.90
2022-11-24T17:41:18.032Z,39.27
2022-11-24T17:43:49.187Z,38.57
2022-11-24T17:46:16.106Z,38.87
2022-11-24T17:48:42.812Z,41.00
2022-11-24T17:51:14.720Z,41.47
2022-11-24T17:53:43.131Z,43.17
2022-11-24T17:56:37.666Z,51.07
2022-11-24T17:59:04.628Z,51.42
2022-11-24T18:01:32.324Z,42.40
2022-11-24T18:03:59.479Z,51.17
2022-11-24T18:06:28.584Z,56.30
2022-11-24T18:09:00.800Z,52.00
2022-11-24T18:11:31.900Z,50.60
2022-11-24T18:14:02.430Z,54.27
2022-11-24T18:16:33.470Z,53.63
2022-11-24T18:19:10.448Z,51.73
2022-11-24T18:21:39.476Z,47.23
2022-11-24T18:24:09.717Z,43.73
2022-11-24T18:26:40.422Z,40.57
2022-11-24T18:29:07.961Z,39.47
2022-11-24T18:31:35.807Z,40.77
2022-11-24T18:34:04.213Z,40.40
2022-11-24T18:36:31.375Z,43.43
2022-11-24T18:39:01.129Z,41.20
2022-11-24T18:41:27.860Z,40.87
2022-11-24T18:43:54.540Z,40.20
2022-11-24T18:46:24.134Z,43.90
2022-11-24T18:48:53.062Z,55.70
2022-11-24T18:51:19.892Z,55.27
2022-11-24T18:53:46.969Z,50.07
2022-11-24T18:56:17.653Z,49.23
2022-11-24T18:58:44.786Z,43.83
2022-11-24T19:01:20.346Z,49.23
2022-11-24T19:03:51.871Z,50.07
2022-11-24T19:06:24.028Z,50.47
2022-11-24T19:08:53.235Z,50.43
2022-11-24T19:11:22.646Z,58.03
2022-11-24T19:13:49.510Z,53.57
2022-11-24T19:16:16.980Z,53.57
2022-11-24T19:18:46.493Z,45.90
2022-11-24T19:21:18.123Z,50.43
2022-11-24T19:23:45.359Z,54.83
2022-11-24T19:26:12.240Z,60.67
2022-11-24T19:28:39.248Z,49.70
2022-11-24T19:31:08.347Z,44.93
2022-11-24T19:33:35.470Z,46.03
2022-11-24T19:36:08.923Z,47.33
2022-11-24T19:38:35.994Z,52.20
2022-11-24T19:41:07.948Z,42.73
2022-11-24T19:43:35.085Z,46.60
2022-11-24T19:46:03.205Z,45.23
2022-11-24T19:48:34.332Z,43.30
2022-11-24T19:51:04.603Z,47.90
2022-11-24T19:53:31.850Z,47.87
2022-11-24T19:56:18.163Z,42.20
2022-11-24T19:58:50.332Z,46.47
2022-11-24T20:01:26.434Z,45.97
2022-11-24T20:04:02.952Z,47.00
2022-11-24T20:06:32.052Z,42.50
2022-11-24T20:09:01.160Z,41.20
2022-11-24T20:11:28.678Z,47.40
2022-11-24T20:13:56.245Z,44.90
2022-11-24T20:16:30.863Z,51.87
2022-11-24T20:18:59.863Z,50.17
2022-11-24T20:21:29.119Z,53.80
2022-11-24T20:23:58.867Z,49.90
2022-11-24T20:26:28.293Z,59.33
2022-11-24T20:28:57.921Z,53.87
2022-11-24T20:31:28.688Z,56.03
2022-11-24T20:33:56.088Z,51.67
2022-11-24T20:36:25.560Z,56.13
2022-11-24T20:38:58.892Z,58.37
2022-11-24T20:41:34.357Z,51.15
2022-11-24T20:44:09.179Z,60.43
2022-11-24T20:49:19.191Z,51.07
2022-11-24T20:51:48.128Z,62.00
2022-11-24T20:54:17.357Z,53.17
2022-11-24T20:56:46.486Z,62.57
2022-11-24T20:59:27.714Z,53.60
2022-11-24T21:02:00.853Z,46.07
2022-11-24T21:04:28.124Z,51.73
2022-11-24T21:07:00.079Z,51.63
2022-11-24T21:09:27.933Z,52.20
2022-11-24T21:12:00.009Z,51.30
2022-11-24T21:14:38.699Z,50.40
2022-11-24T21:17:06.111Z,51.27
2022-11-24T21:19:36.184Z,52.40
2022-11-24T21:22:09.728Z,51.30
2022-11-24T21:24:39.853Z,52.70
2022-11-24T21:27:06.711Z,53.83
2022-11-24T21:29:33.691Z,45.80
2022-11-24T21:32:00.836Z,46.40
2022-11-24T21:34:28.393Z,49.70
2022-11-24T21:36:55.778Z,41.43
2022-11-24T21:39:22.916Z,54.33
2022-11-24T21:41:49.732Z,42.60
2022-11-24T21:44:17.182Z,45.00
2022-11-24T21:46:52.776Z,43.17
2022-11-24T21:49:22.958Z,45.80
2022-11-24T21:51:55.533Z,46.47
2022-11-24T21:54:24.029Z,54.50
2022-11-24T21:56:51.228Z,53.57
2022-11-24T21:59:25.371Z,44.40
2022-11-24T22:01:54.773Z,43.20
2022-11-24T22:04:24.559Z,40.80
2022-11-24T22:06:53.594Z,44.77
2022-11-24T22:09:22.287Z,42.70
2022-11-24T22:11:49.813Z,46.17
2022-11-24T22:14:16.891Z,42.63
2022-11-24T22:16:43.665Z,41.60
2022-11-24T22:19:11.509Z,41.73
2022-11-24T22:21:40.254Z,50.57
2022-11-24T22:24:12.675Z,46.23
2022-11-24T22:26:39.989Z,42.93
2022-11-24T22:29:08.699Z,41.20
2022-11-24T22:31:35.403Z,43.87
2022-11-24T22:34:02.577Z,36.87
2022-11-24T22:36:33.350Z,39.47
2022-11-24T22:39:04.555Z,36.83
2022-11-24T22:41:33.418Z,38.10
2022-11-24T22:44:01.721Z,46.03
2022-11-24T22:46:29.978Z,40.27
2022-11-24T22:49:00.975Z,41.93
2022-11-24T22:51:29.973Z,37.83
2022-11-24T22:54:01.416Z,43.47
2022-11-24T22:56:33.003Z,34.93
2022-11-24T22:59:04.776Z,35.70
2022-11-24T23:01:33.940Z,32.60
2022-11-24T23:04:01.940Z,43.93
2022-11-24T23:06:31.155Z,36.50
2022-11-24T23:09:09.701Z,35.67
2022-11-24T23:11:38.630Z,39.37
2022-11-24T23:14:15.294Z,34.13
2022-11-24T23:16:42.651Z,35.80
2022-11-24T23:19:09.620Z,34.70
2022-11-24T23:21:38.435Z,39.60
2022-11-24T23:24:11.675Z,36.50
2022-11-24T23:26:40.124Z,39.23
2022-11-24T23:29:13.477Z,36.83
2022-11-24T23:31:40.997Z,34.50
2022-11-24T23:34:08.370Z,31.27
2022-11-24T23:36:35.167Z,39.37
2022-11-24T23:39:14.279Z,37.47
2022-11-24T23:41:44.439Z,30.80
2022-11-24T23:44:11.237Z,33.70
2022-11-24T23:46:38.501Z,33.37
2022-11-24T23:49:05.598Z,34.10
2022-11-24T23:51:35.482Z,37.33
2022-11-24T23:54:08.903Z,36.67
2022-11-24T23:56:40.014Z,34.25
2022-11-24T23:59:07.117Z,34.97
